Time,TemperatureF,DewpointF,PressureIn,WindDirection,WindDirectionDegrees,WindSpeedMPH,WindSpeedGustMPH,Humidity,HourlyPrecipIn,Conditions,Clouds,dailyrainin,SolarRadiationWatts/m^2,SoftwareType,DateUTC
2013-11-20 00:02:00,37.0,26.0,-100.00,NW,305,8.0,10.0,64,0.00,,,0.00,0.000000,,2013-11-20 08:02:00,
2013-11-20 00:12:00,37.0,26.0,-100.00,NW,305,8.0,10.0,64,0.00,,,0.00,0.000000,,2013-11-20 08:12:00,
2013-11-20 00:21:00,37.0,26.0,-100.00,NW,305,8.0,10.0,64,0.00,,,0.00,0.000000,,2013-11-20 08:21:00,
2013-11-20 00:52:00,38.0,20.0,-100.00,NNW,338,13.0,19.0,47,0.00,,,0.00,0.000000,,2013-11-20 08:52:00,
2013-11-20 01:02:00,38.0,20.0,-100.00,NNW,338,13.0,19.0,47,0.00,,,0.00,0.000000,,2013-11-20 09:02:00,
2013-11-20 01:12:00,38.0,20.0,-100.00,NNW,338,13.0,19.0,47,0.00,,,0.00,0.000000,,2013-11-20 09:12:00,
2013-11-20 01:21:00,38.0,20.0,-100.00,NNW,338,13.0,19.0,47,0.00,,,0.00,0.000000,,2013-11-20 09:21:00,
2013-11-20 01:54:00,37.0,20.0,-100.00,North,350,8.0,19.0,50,0.00,,,0.00,0.000000,,2013-11-20 09:54:00,
2013-11-20 02:03:00,37.0,20.0,-100.00,North,350,8.0,19.0,50,0.00,,,0.00,0.000000,,2013-11-20 10:03:00,
2013-11-20 02:12:00,37.0,20.0,-100.00,North,350,8.0,19.0,50,0.00,,,0.00,0.000000,,2013-11-20 10:12:00,
2013-11-20 02:23:00,37.0,20.0,-100.00,North,350,8.0,19.0,50,0.00,,,0.00,0.000000,,2013-11-20 10:23:00,
2013-11-20 02:53:00,38.0,15.0,-100.00,North,0,17.0,25.0,39,0.00,,,0.00,0.000000,,2013-11-20 10:53:00,
2013-11-20 03:02:00,38.0,15.0,-100.00,North,0,17.0,25.0,39,0.00,,,0.00,0.000000,,2013-11-20 11:02:00,
2013-11-20 03:12:00,38.0,15.0,-100.00,North,0,17.0,25.0,39,0.00,,,0.00,0.000000,,2013-11-20 11:12:00,
2013-11-20 03:22:00,38.0,15.0,-100.00,North,0,17.0,25.0,39,0.00,,,0.00,0.000000,,2013-11-20 11:22:00,
2013-11-20 03:52:00,35.0,12.0,-100.00,North,7,16.0,29.0,38,0.00,,,0.00,0.000000,,2013-11-20 11:52:00,
2013-11-20 04:02:00,35.0,12.0,-100.00,North,7,16.0,29.0,38,0.00,,,0.00,0.000000,,2013-11-20 12:02:00,
2013-11-20 04:11:00,35.0,12.0,-100.00,North,7,16.0,29.0,38,0.00,,,0.00,0.000000,,2013-11-20 12:11:00,
2013-11-20 04:22:00,35.0,12.0,-100.00,North,7,16.0,29.0,38,0.00,,,0.00,0.000000,,2013-11-20 12:22:00,
2013-11-20 05:11:00,33.0,12.0,-100.00,North,6,12.0,24.0,42,0.00,,,0.00,0.000000,,2013-11-20 13:11:00,
2013-11-20 05:21:00,33.0,12.0,-100.00,North,6,12.0,24.0,42,0.00,,,0.00,0.000000,,2013-11-20 13:21:00,
2013-11-20 05:52:00,31.0,10.0,-100.00,NNW,332,9.0,18.0,40,0.00,,,0.00,0.000000,,2013-11-20 13:52:00,
2013-11-20 06:02:00,31.0,10.0,-100.00,NNW,332,9.0,18.0,40,0.00,,,0.00,0.000000,,2013-11-20 14:02:00,
2013-11-20 06:12:00,31.0,10.0,-100.00,NNW,332,9.0,18.0,40,0.00,,,0.00,0.000000,,2013-11-20 14:12:00,
2013-11-20 06:22:00,31.0,10.0,-100.00,NNW,332,9.0,18.0,40,0.00,,,0.00,0.000000,,2013-11-20 14:22:00,
2013-11-20 06:52:00,29.0,10.0,-100.00,NNW,335,7.0,16.0,45,0.00,,,-99.99,0.000000,,2013-11-20 14:52:00,
2013-11-20 07:02:00,29.0,10.0,-100.00,NNW,335,7.0,16.0,45,0.00,,,-99.99,0.000000,,2013-11-20 15:02:00,
2013-11-20 07:11:00,29.0,10.0,-100.00,NNW,335,7.0,16.0,45,0.00,,,-99.99,0.000000,,2013-11-20 15:11:00,
2013-11-20 07:21:00,29.0,10.0,-100.00,NNW,335,7.0,16.0,45,0.00,,,-99.99,0.000000,,2013-11-20 15:21:00,
2013-11-20 07:53:00,28.0,5.0,-100.00,NNE,16,5.0,19.0,37,0.00,,,0.00,3.000000,,2013-11-20 15:53:00,
2013-11-20 08:03:00,28.0,5.0,-100.00,NNE,16,5.0,19.0,37,0.00,,,0.00,3.000000,,2013-11-20 16:03:00,
2013-11-20 08:12:00,28.0,5.0,-100.00,NNE,16,5.0,19.0,37,0.00,,,0.00,3.000000,,2013-11-20 16:12:00,
2013-11-20 08:23:00,28.0,5.0,-100.00,NNE,16,5.0,19.0,37,0.00,,,0.00,3.000000,,2013-11-20 16:23:00,
2013-11-20 08:52:00,31.0,3.0,-100.00,North,7,9.0,25.0,29,0.00,,,-99.99,114.000000,,2013-11-20 16:52:00,
2013-11-20 09:02:00,31.0,3.0,-100.00,North,7,9.0,25.0,29,0.00,,,-99.99,114.000000,,2013-11-20 17:02:00,
2013-11-20 09:12:00,31.0,3.0,-100.00,North,7,9.0,25.0,29,0.00,,,-99.99,114.000000,,2013-11-20 17:12:00,
2013-11-20 09:22:00,31.0,3.0,-100.00,North,7,9.0,25.0,29,0.00,,,-99.99,114.000000,,2013-11-20 17:22:00,
2013-11-20 09:52:00,33.0,1.0,-100.00,North,1,13.0,23.0,25,0.00,,,0.00,258.000000,,2013-11-20 17:52:00,
2013-11-20 10:01:00,33.0,1.0,-100.00,North,1,13.0,23.0,25,0.00,,,0.00,258.000000,,2013-11-20 18:01:00,
2013-11-20 10:12:00,33.0,1.0,-100.00,North,1,13.0,23.0,25,0.00,,,0.00,258.000000,,2013-11-20 18:12:00,
2013-11-20 10:21:00,33.0,1.0,-100.00,North,1,13.0,23.0,25,0.00,,,0.00,258.000000,,2013-11-20 18:21:00,
2013-11-20 10:52:00,35.0,3.0,-100.00,North,7,9.0,22.0,25,0.00,,,0.00,361.000000,,2013-11-20 18:52:00,
2013-11-20 11:02:00,35.0,3.0,-100.00,North,7,9.0,22.0,25,0.00,,,0.00,361.000000,,2013-11-20 19:02:00,
2013-11-20 11:11:00,35.0,3.0,-100.00,North,7,9.0,22.0,25,0.00,,,0.00,361.000000,,2013-11-20 19:11:00,
2013-11-20 11:21:00,35.0,3.0,-100.00,North,7,9.0,22.0,25,0.00,,,0.00,361.000000,,2013-11-20 19:21:00,
2013-11-20 11:52:00,37.0,-4.0,-100.00,North,353,10.0,17.0,17,0.00,,,0.00,424.000000,,2013-11-20 19:52:00,
2013-11-20 12:01:00,37.0,-4.0,-100.00,North,353,10.0,17.0,17,0.00,,,0.00,424.000000,,2013-11-20 20:01:00,
2013-11-20 12:11:00,37.0,-4.0,-100.00,North,353,10.0,17.0,17,0.00,,,0.00,424.000000,,2013-11-20 20:11:00,
2013-11-20 12:21:00,37.0,-4.0,-100.00,North,353,10.0,17.0,17,0.00,,,0.00,424.000000,,2013-11-20 20:21:00,
2013-11-20 12:52:00,38.0,-5.0,-100.00,North,350,12.0,17.0,15,0.00,,,0.00,434.000000,,2013-11-20 20:52:00,
2013-11-20 13:02:00,38.0,-5.0,-100.00,North,350,12.0,17.0,15,0.00,,,0.00,434.000000,,2013-11-20 21:02:00,
2013-11-20 13:53:00,39.0,-3.0,-100.00,North,349,11.0,17.0,16,0.00,,,0.00,382.000000,,2013-11-20 21:53:00,
2013-11-20 14:03:00,39.0,-3.0,-100.00,North,349,11.0,17.0,16,0.00,,,0.00,382.000000,,2013-11-20 22:03:00,
2013-11-20 14:13:00,39.0,-3.0,-100.00,North,349,11.0,17.0,16,0.00,,,0.00,382.000000,,2013-11-20 22:13:00,
2013-11-20 14:23:00,39.0,-3.0,-100.00,North,349,11.0,17.0,16,0.00,,,0.00,382.000000,,2013-11-20 22:23:00,
2013-11-20 15:12:00,39.0,-3.0,-100.00,North,2,11.0,16.0,16,0.00,,,0.00,289.000000,,2013-11-20 23:12:00,
2013-11-20 15:21:00,39.0,-3.0,-100.00,North,2,11.0,16.0,16,0.00,,,0.00,289.000000,,2013-11-20 23:21:00,
2013-11-20 15:52:00,38.0,-1.0,-100.00,NNE,13,6.0,14.0,19,0.00,,,0.00,155.000000,,2013-11-20 23:52:00,
2013-11-20 16:02:00,38.0,-1.0,-100.00,NNE,13,6.0,14.0,19,0.00,,,0.00,155.000000,,2013-11-21 00:02:00,
2013-11-20 16:11:00,38.0,-1.0,-100.00,NNE,13,6.0,14.0,19,0.00,,,0.00,155.000000,,2013-11-21 00:11:00,
2013-11-20 16:21:00,38.0,-1.0,-100.00,NNE,13,6.0,14.0,19,0.00,,,0.00,155.000000,,2013-11-21 00:21:00,
2013-11-20 16:52:00,33.0,2.0,-100.00,North,3,7.0,9.0,26,0.00,,,0.00,24.000000,,2013-11-21 00:52:00,
2013-11-20 17:02:00,33.0,2.0,-100.00,North,3,7.0,9.0,26,0.00,,,0.00,24.000000,,2013-11-21 01:02:00,
2013-11-20 17:11:00,33.0,2.0,-100.00,North,3,7.0,9.0,26,0.00,,,0.00,24.000000,,2013-11-21 01:11:00,
2013-11-20 17:21:00,33.0,2.0,-100.00,North,3,7.0,9.0,26,0.00,,,0.00,24.000000,,2013-11-21 01:21:00,
2013-11-20 17:52:00,32.0,3.0,-100.00,North,357,6.0,9.0,29,0.00,,,0.00,0.000000,,2013-11-21 01:52:00,
2013-11-20 18:01:00,32.0,3.0,-100.00,North,357,6.0,9.0,29,0.00,,,0.00,0.000000,,2013-11-21 02:01:00,
2013-11-20 18:11:00,32.0,3.0,-100.00,North,357,6.0,9.0,29,0.00,,,0.00,0.000000,,2013-11-21 02:11:00,
2013-11-20 18:21:00,32.0,3.0,-100.00,North,357,6.0,9.0,29,0.00,,,0.00,0.000000,,2013-11-21 02:21:00,
2013-11-20 19:11:00,28.0,5.0,-100.00,West,269,4.0,7.0,37,0.00,,,0.00,0.000000,,2013-11-21 03:11:00,
2013-11-20 19:21:00,28.0,5.0,-100.00,West,269,4.0,7.0,37,0.00,,,0.00,0.000000,,2013-11-21 03:21:00,
2013-11-20 20:13:00,25.0,3.0,-100.00,East,98,2.0,6.0,38,0.00,,,0.00,0.000000,,2013-11-21 04:13:00,
2013-11-20 20:23:00,25.0,3.0,-100.00,East,98,2.0,6.0,38,0.00,,,0.00,0.000000,,2013-11-21 04:23:00,
2013-11-20 20:53:00,24.0,6.0,-100.00,East,95,3.0,7.0,45,0.00,,,0.00,0.000000,,2013-11-21 04:53:00,
2013-11-20 21:02:00,24.0,6.0,-100.00,East,95,3.0,7.0,45,0.00,,,0.00,0.000000,,2013-11-21 05:02:00,
2013-11-20 21:12:00,24.0,6.0,-100.00,East,95,3.0,7.0,45,0.00,,,0.00,0.000000,,2013-11-21 05:12:00,
2013-11-20 21:22:00,24.0,6.0,-100.00,East,95,3.0,7.0,45,0.00,,,0.00,0.000000,,2013-11-21 05:22:00,
2013-11-20 21:53:00,21.0,5.0,-100.00,WSW,256,2.0,6.0,49,0.00,,,0.00,0.000000,,2013-11-21 05:53:00,
2013-11-20 22:03:00,21.0,5.0,-100.00,WSW,256,2.0,6.0,49,0.00,,,0.00,0.000000,,2013-11-21 06:03:00,
2013-11-20 22:12:00,21.0,5.0,-100.00,WSW,256,2.0,6.0,49,0.00,,,0.00,0.000000,,2013-11-21 06:12:00,
2013-11-20 22:22:00,21.0,5.0,-100.00,WSW,256,2.0,6.0,49,0.00,,,0.00,0.000000,,2013-11-21 06:22:00,
2013-11-20 22:52:00,23.0,5.0,-100.00,SW,227,3.0,4.0,46,0.00,,,0.00,0.000000,,2013-11-21 06:52:00,
2013-11-20 23:02:00,23.0,5.0,-100.00,SW,227,3.0,4.0,46,0.00,,,0.00,0.000000,,2013-11-21 07:02:00,
2013-11-20 23:11:00,23.0,5.0,-100.00,SW,227,3.0,4.0,46,0.00,,,0.00,0.000000,,2013-11-21 07:11:00,
2013-11-20 23:22:00,23.0,5.0,-100.00,SW,227,3.0,4.0,46,0.00,,,0.00,0.000000,,2013-11-21 07:22:00,
2013-11-20 23:52:00,21.0,4.0,-100.00,NW,322,2.0,5.0,48,0.00,,,0.00,0.000000,,2013-11-21 07:52:00,